sensor_id;sensor_type;location;lat;lon;timestamp;P1;durP1;ratioP1;P2;durP2;ratioP2
52102;SDS011;38101;53.126;6.878;2023-11-19T00:00:17;21.08;;;12.27;;
52102;SDS011;38101;53.126;6.878;2023-11-19T00:02:43;22.60;;;11.75;;
52102;SDS011;38101;53.126;6.878;2023-11-19T00:05:09;21.27;;;13.20;;
52102;SDS011;38101;53.126;6.878;2023-11-19T00:07:39;23.02;;;13.43;;
52102;SDS011;38101;53.126;6.878;2023-11-19T00:10:11;24.80;;;14.20;;
52102;SDS011;38101;53.126;6.878;2023-11-19T00:12:39;24.83;;;13.50;;
52102;SDS011;38101;53.126;6.878;2023-11-19T00:15:09;22.48;;;13.93;;
52102;SDS011;38101;53.126;6.878;2023-11-19T00:17:39;24.58;;;12.98;;
52102;SDS011;38101;53.126;6.878;2023-11-19T00:20:09;24.35;;;13.77;;
52102;SDS011;38101;53.126;6.878;2023-11-19T00:22:39;26.00;;;15.18;;
52102;SDS011;38101;53.126;6.878;2023-11-19T00:25:05;27.15;;;13.30;;
52102;SDS011;38101;53.126;6.878;2023-11-19T00:27:31;25.02;;;13.27;;
52102;SDS011;38101;53.126;6.878;2023-11-19T00:29:57;24.58;;;13.70;;
52102;SDS011;38101;53.126;6.878;2023-11-19T00:32:23;25.73;;;14.07;;
52102;SDS011;38101;53.126;6.878;2023-11-19T00:34:49;26.05;;;14.95;;
52102;SDS011;38101;53.126;6.878;2023-11-19T00:37:15;24.23;;;13.48;;
52102;SDS011;38101;53.126;6.878;2023-11-19T00:39:44;24.63;;;14.38;;
52102;SDS011;38101;53.126;6.878;2023-11-19T00:42:11;262.73;;;120.13;;
52102;SDS011;38101;53.126;6.878;2023-11-19T00:44:36;202.85;;;113.20;;
52102;SDS011;38101;53.126;6.878;2023-11-19T00:47:02;96.72;;;56.17;;
52102;SDS011;38101;53.126;6.878;2023-11-19T00:49:28;181.93;;;107.03;;
52102;SDS011;38101;53.126;6.878;2023-11-19T00:51:54;118.03;;;66.55;;
52102;SDS011;38101;53.126;6.878;2023-11-19T00:54:20;34.70;;;17.65;;
52102;SDS011;38101;53.126;6.878;2023-11-19T00:56:46;28.45;;;15.75;;
52102;SDS011;38101;53.126;6.878;2023-11-19T00:59:11;23.98;;;14.00;;
52102;SDS011;38101;53.126;6.878;2023-11-19T01:01:39;23.27;;;14.02;;
52102;SDS011;38101;53.126;6.878;2023-11-19T01:04:05;27.42;;;13.63;;
52102;SDS011;38101;53.126;6.878;2023-11-19T01:06:31;26.13;;;14.25;;
52102;SDS011;38101;53.126;6.878;2023-11-19T01:08:57;26.08;;;13.35;;
52102;SDS011;38101;53.126;6.878;2023-11-19T01:11:27;24.20;;;12.60;;
52102;SDS011;38101;53.126;6.878;2023-11-19T01:13:53;22.67;;;11.73;;
52102;SDS011;38101;53.126;6.878;2023-11-19T01:16:19;27.60;;;12.75;;
52102;SDS011;38101;53.126;6.878;2023-11-19T01:18:48;28.70;;;11.93;;
52102;SDS011;38101;53.126;6.878;2023-11-19T01:21:14;23.23;;;10.60;;
52102;SDS011;38101;53.126;6.878;2023-11-19T01:23:41;30.80;;;11.95;;
52102;SDS011;38101;53.126;6.878;2023-11-19T01:26:10;20.52;;;9.63;;
52102;SDS011;38101;53.126;6.878;2023-11-19T01:28:37;23.25;;;10.43;;
52102;SDS011;38101;53.126;6.878;2023-11-19T01:31:14;24.63;;;9.27;;
52102;SDS011;38101;53.126;6.878;2023-11-19T01:33:41;23.90;;;9.68;;
52102;SDS011;38101;53.126;6.878;2023-11-19T01:36:07;24.10;;;8.20;;
52102;SDS011;38101;53.126;6.878;2023-11-19T01:38:33;20.65;;;8.23;;
52102;SDS011;38101;53.126;6.878;2023-11-19T01:40:59;23.48;;;7.57;;
52102;SDS011;38101;53.126;6.878;2023-11-19T01:43:37;29.73;;;7.90;;
52102;SDS011;38101;53.126;6.878;2023-11-19T01:46:06;26.15;;;7.30;;
52102;SDS011;38101;53.126;6.878;2023-11-19T01:48:34;23.92;;;7.22;;
52102;SDS011;38101;53.126;6.878;2023-11-19T01:51:02;22.70;;;7.28;;
52102;SDS011;38101;53.126;6.878;2023-11-19T01:53:29;29.42;;;7.25;;
52102;SDS011;38101;53.126;6.878;2023-11-19T01:55:56;19.95;;;6.25;;
52102;SDS011;38101;53.126;6.878;2023-11-19T01:58:22;24.35;;;7.18;;
52102;SDS011;38101;53.126;6.878;2023-11-19T02:00:48;22.85;;;5.60;;
52102;SDS011;38101;53.126;6.878;2023-11-19T02:03:14;24.83;;;6.57;;
52102;SDS011;38101;53.126;6.878;2023-11-19T02:05:40;24.17;;;6.30;;
52102;SDS011;38101;53.126;6.878;2023-11-19T02:08:06;23.15;;;6.05;;
52102;SDS011;38101;53.126;6.878;2023-11-19T02:10:33;24.77;;;6.88;;
52102;SDS011;38101;53.126;6.878;2023-11-19T02:12:58;20.65;;;5.70;;
52102;SDS011;38101;53.126;6.878;2023-11-19T02:15:30;21.17;;;5.93;;
52102;SDS011;38101;53.126;6.878;2023-11-19T02:17:56;22.30;;;6.70;;
52102;SDS011;38101;53.126;6.878;2023-11-19T02:20:21;25.02;;;7.47;;
52102;SDS011;38101;53.126;6.878;2023-11-19T02:22:47;19.10;;;6.10;;
52102;SDS011;38101;53.126;6.878;2023-11-19T02:25:30;26.48;;;6.85;;
52102;SDS011;38101;53.126;6.878;2023-11-19T02:28:01;25.33;;;6.82;;
52102;SDS011;38101;53.126;6.878;2023-11-19T02:30:28;24.60;;;7.10;;
52102;SDS011;38101;53.126;6.878;2023-11-19T02:33:00;19.60;;;6.28;;
52102;SDS011;38101;53.126;6.878;2023-11-19T02:35:31;21.30;;;6.45;;
52102;SDS011;38101;53.126;6.878;2023-11-19T02:37:57;18.50;;;5.40;;
52102;SDS011;38101;53.126;6.878;2023-11-19T02:40:28;27.67;;;6.03;;
52102;SDS011;38101;53.126;6.878;2023-11-19T02:42:55;19.55;;;5.60;;
52102;SDS011;38101;53.126;6.878;2023-11-19T02:45:24;23.20;;;5.30;;
52102;SDS011;38101;53.126;6.878;2023-11-19T02:47:50;23.75;;;5.78;;
52102;SDS011;38101;53.126;6.878;2023-11-19T02:50:17;20.20;;;6.30;;
52102;SDS011;38101;53.126;6.878;2023-11-19T02:52:52;16.85;;;5.18;;
52102;SDS011;38101;53.126;6.878;2023-11-19T02:55:19;19.95;;;5.50;;
52102;SDS011;38101;53.126;6.878;2023-11-19T02:57:45;21.80;;;5.82;;
52102;SDS011;38101;53.126;6.878;2023-11-19T03:00:20;23.25;;;6.90;;
52102;SDS011;38101;53.126;6.878;2023-11-19T03:02:53;25.17;;;6.15;;
52102;SDS011;38101;53.126;6.878;2023-11-19T03:05:25;22.90;;;6.43;;
52102;SDS011;38101;53.126;6.878;2023-11-19T03:07:52;25.70;;;6.18;;
52102;SDS011;38101;53.126;6.878;2023-11-19T03:10:17;20.85;;;5.93;;
52102;SDS011;38101;53.126;6.878;2023-11-19T03:12:44;19.50;;;7.25;;
52102;SDS011;38101;53.126;6.878;2023-11-19T03:15:12;19.42;;;5.78;;
52102;SDS011;38101;53.126;6.878;2023-11-19T03:17:38;19.15;;;5.68;;
52102;SDS011;38101;53.126;6.878;2023-11-19T03:20:05;21.63;;;6.28;;
52102;SDS011;38101;53.126;6.878;2023-11-19T03:22:34;22.25;;;6.30;;
52102;SDS011;38101;53.126;6.878;2023-11-19T03:25:01;21.75;;;6.25;;
52102;SDS011;38101;53.126;6.878;2023-11-19T03:27:27;21.85;;;5.90;;
52102;SDS011;38101;53.126;6.878;2023-11-19T03:29:53;20.38;;;6.15;;
52102;SDS011;38101;53.126;6.878;2023-11-19T03:32:18;23.38;;;5.90;;
52102;SDS011;38101;53.126;6.878;2023-11-19T03:34:44;25.42;;;5.82;;
52102;SDS011;38101;53.126;6.878;2023-11-19T03:37:10;24.52;;;6.22;;
52102;SDS011;38101;53.126;6.878;2023-11-19T03:39:36;22.75;;;6.00;;
52102;SDS011;38101;53.126;6.878;2023-11-19T03:42:02;27.67;;;6.55;;
52102;SDS011;38101;53.126;6.878;2023-11-19T03:44:28;22.73;;;6.28;;
52102;SDS011;38101;53.126;6.878;2023-11-19T03:46:54;25.50;;;6.05;;
52102;SDS011;38101;53.126;6.878;2023-11-19T03:49:19;24.83;;;6.05;;
52102;SDS011;38101;53.126;6.878;2023-11-19T03:51:45;22.23;;;6.35;;
52102;SDS011;38101;53.126;6.878;2023-11-19T03:54:11;19.52;;;6.22;;
52102;SDS011;38101;53.126;6.878;2023-11-19T03:56:36;25.63;;;6.10;;
52102;SDS011;38101;53.126;6.878;2023-11-19T03:59:02;25.52;;;6.32;;
52102;SDS011;38101;53.126;6.878;2023-11-19T04:01:28;21.90;;;5.88;;
52102;SDS011;38101;53.126;6.878;2023-11-19T04:03:53;27.77;;;5.88;;
52102;SDS011;38101;53.126;6.878;2023-11-19T04:06:21;20.02;;;6.53;;
52102;SDS011;38101;53.126;6.878;2023-11-19T04:08:46;22.75;;;6.10;;
52102;SDS011;38101;53.126;6.878;2023-11-19T04:11:12;20.83;;;5.53;;
52102;SDS011;38101;53.126;6.878;2023-11-19T04:13:38;24.92;;;7.00;;
52102;SDS011;38101;53.126;6.878;2023-11-19T04:16:03;22.58;;;5.78;;
52102;SDS011;38101;53.126;6.878;2023-11-19T04:18:29;18.25;;;5.25;;
52102;SDS011;38101;53.126;6.878;2023-11-19T04:20:57;15.45;;;5.32;;
52102;SDS011;38101;53.126;6.878;2023-11-19T04:23:22;19.73;;;6.05;;
52102;SDS011;38101;53.126;6.878;2023-11-19T04:25:50;23.73;;;5.63;;
52102;SDS011;38101;53.126;6.878;2023-11-19T04:28:15;18.55;;;6.00;;
52102;SDS011;38101;53.126;6.878;2023-11-19T04:30:41;24.95;;;5.43;;
52102;SDS011;38101;53.126;6.878;2023-11-19T04:33:07;19.52;;;5.55;;
52102;SDS011;38101;53.126;6.878;2023-11-19T04:35:32;25.40;;;5.85;;
52102;SDS011;38101;53.126;6.878;2023-11-19T04:37:58;31.65;;;6.57;;
52102;SDS011;38101;53.126;6.878;2023-11-19T04:40:24;28.38;;;6.28;;
52102;SDS011;38101;53.126;6.878;2023-11-19T04:42:50;28.00;;;5.70;;
52102;SDS011;38101;53.126;6.878;2023-11-19T04:45:15;24.05;;;5.97;;
52102;SDS011;38101;53.126;6.878;2023-11-19T04:47:42;26.20;;;6.20;;
52102;SDS011;38101;53.126;6.878;2023-11-19T04:50:08;20.30;;;5.65;;
52102;SDS011;38101;53.126;6.878;2023-11-19T04:52:37;30.80;;;6.82;;
52102;SDS011;38101;53.126;6.878;2023-11-19T04:55:10;17.05;;;5.38;;
52102;SDS011;38101;53.126;6.878;2023-11-19T04:57:36;26.67;;;6.47;;
52102;SDS011;38101;53.126;6.878;2023-11-19T05:00:02;25.58;;;7.22;;
52102;SDS011;38101;53.126;6.878;2023-11-19T05:02:30;23.02;;;5.47;;
52102;SDS011;38101;53.126;6.878;2023-11-19T05:04:55;27.35;;;6.25;;
52102;SDS011;38101;53.126;6.878;2023-11-19T05:07:21;25.80;;;6.85;;
52102;SDS011;38101;53.126;6.878;2023-11-19T05:09:47;21.75;;;6.40;;
52102;SDS011;38101;53.126;6.878;2023-11-19T05:12:13;25.90;;;6.38;;
52102;SDS011;38101;53.126;6.878;2023-11-19T05:14:38;30.45;;;6.70;;
52102;SDS011;38101;53.126;6.878;2023-11-19T05:17:04;26.58;;;6.72;;
52102;SDS011;38101;53.126;6.878;2023-11-19T05:19:30;23.33;;;6.60;;
52102;SDS011;38101;53.126;6.878;2023-11-19T05:21:55;23.80;;;6.43;;
52102;SDS011;38101;53.126;6.878;2023-11-19T05:24:22;28.67;;;6.57;;
52102;SDS011;38101;53.126;6.878;2023-11-19T05:26:48;23.75;;;6.53;;
52102;SDS011;38101;53.126;6.878;2023-11-19T05:29:15;25.92;;;7.13;;
52102;SDS011;38101;53.126;6.878;2023-11-19T05:31:41;25.20;;;6.18;;
52102;SDS011;38101;53.126;6.878;2023-11-19T05:34:06;24.92;;;6.00;;
52102;SDS011;38101;53.126;6.878;2023-11-19T05:36:32;20.02;;;5.82;;
52102;SDS011;38101;53.126;6.878;2023-11-19T05:38:58;23.23;;;6.55;;
52102;SDS011;38101;53.126;6.878;2023-11-19T05:41:23;26.35;;;7.78;;
52102;SDS011;38101;53.126;6.878;2023-11-19T05:43:49;32.03;;;6.80;;
52102;SDS011;38101;53.126;6.878;2023-11-19T05:46:15;23.15;;;5.82;;
52102;SDS011;38101;53.126;6.878;2023-11-19T05:48:41;22.55;;;6.00;;
52102;SDS011;38101;53.126;6.878;2023-11-19T05:51:07;24.52;;;7.25;;
52102;SDS011;38101;53.126;6.878;2023-11-19T05:53:33;24.65;;;6.22;;
52102;SDS011;38101;53.126;6.878;2023-11-19T05:55:59;26.38;;;7.63;;
52102;SDS011;38101;53.126;6.878;2023-11-19T05:58:28;24.42;;;6.50;;
52102;SDS011;38101;53.126;6.878;2023-11-19T06:00:55;28.05;;;6.72;;
52102;SDS011;38101;53.126;6.878;2023-11-19T06:03:22;25.50;;;6.97;;
52102;SDS011;38101;53.126;6.878;2023-11-19T06:05:48;27.00;;;7.68;;
52102;SDS011;38101;53.126;6.878;2023-11-19T06:08:14;31.92;;;7.35;;
52102;SDS011;38101;53.126;6.878;2023-11-19T06:10:43;26.15;;;5.75;;
52102;SDS011;38101;53.126;6.878;2023-11-19T06:13:11;23.70;;;6.05;;
52102;SDS011;38101;53.126;6.878;2023-11-19T06:15:37;25.63;;;5.95;;
52102;SDS011;38101;53.126;6.878;2023-11-19T06:18:03;21.55;;;6.22;;
52102;SDS011;38101;53.126;6.878;2023-11-19T06:20:32;22.73;;;6.85;;
52102;SDS011;38101;53.126;6.878;2023-11-19T06:22:59;23.88;;;6.10;;
52102;SDS011;38101;53.126;6.878;2023-11-19T06:25:25;28.42;;;6.65;;
52102;SDS011;38101;53.126;6.878;2023-11-19T06:27:51;21.20;;;6.10;;
52102;SDS011;38101;53.126;6.878;2023-11-19T06:30:17;27.00;;;7.43;;
52102;SDS011;38101;53.126;6.878;2023-11-19T06:32:43;31.63;;;6.60;;
52102;SDS011;38101;53.126;6.878;2023-11-19T06:35:09;27.67;;;7.13;;
52102;SDS011;38101;53.126;6.878;2023-11-19T06:37:35;25.13;;;6.28;;
52102;SDS011;38101;53.126;6.878;2023-11-19T06:40:03;26.27;;;6.68;;
52102;SDS011;38101;53.126;6.878;2023-11-19T06:42:30;30.20;;;7.03;;
52102;SDS011;38101;53.126;6.878;2023-11-19T06:44:56;26.23;;;6.47;;
52102;SDS011;38101;53.126;6.878;2023-11-19T06:47:24;29.00;;;6.70;;
52102;SDS011;38101;53.126;6.878;2023-11-19T06:49:53;23.23;;;5.75;;
52102;SDS011;38101;53.126;6.878;2023-11-19T06:52:19;24.75;;;6.25;;
52102;SDS011;38101;53.126;6.878;2023-11-19T06:54:45;22.08;;;6.25;;
52102;SDS011;38101;53.126;6.878;2023-11-19T06:57:11;22.77;;;5.72;;
52102;SDS011;38101;53.126;6.878;2023-11-19T06:59:37;27.67;;;6.65;;
52102;SDS011;38101;53.126;6.878;2023-11-19T07:02:04;26.55;;;6.93;;
52102;SDS011;38101;53.126;6.878;2023-11-19T07:04:30;27.15;;;6.60;;
52102;SDS011;38101;53.126;6.878;2023-11-19T07:06:56;17.73;;;6.07;;
52102;SDS011;38101;53.126;6.878;2023-11-19T07:09:22;26.40;;;6.07;;
52102;SDS011;38101;53.126;6.878;2023-11-19T07:11:48;22.00;;;5.78;;
52102;SDS011;38101;53.126;6.878;2023-11-19T07:14:17;21.38;;;6.95;;
52102;SDS011;38101;53.126;6.878;2023-11-19T07:16:43;20.90;;;6.03;;
52102;SDS011;38101;53.126;6.878;2023-11-19T07:19:09;25.25;;;6.60;;
52102;SDS011;38101;53.126;6.878;2023-11-19T07:21:35;25.58;;;6.63;;
52102;SDS011;38101;53.126;6.878;2023-11-19T07:24:04;26.88;;;6.25;;
52102;SDS011;38101;53.126;6.878;2023-11-19T07:26:30;27.58;;;7.18;;
52102;SDS011;38101;53.126;6.878;2023-11-19T07:28:56;26.33;;;6.22;;
52102;SDS011;38101;53.126;6.878;2023-11-19T07:31:22;26.55;;;7.03;;
52102;SDS011;38101;53.126;6.878;2023-11-19T07:33:49;27.50;;;7.05;;
52102;SDS011;38101;53.126;6.878;2023-11-19T07:36:14;20.55;;;6.53;;
52102;SDS011;38101;53.126;6.878;2023-11-19T07:38:40;25.75;;;6.47;;
52102;SDS011;38101;53.126;6.878;2023-11-19T07:41:06;30.13;;;7.15;;
52102;SDS011;38101;53.126;6.878;2023-11-19T07:43:34;25.10;;;6.53;;
52102;SDS011;38101;53.126;6.878;2023-11-19T07:45:59;28.67;;;6.47;;
52102;SDS011;38101;53.126;6.878;2023-11-19T07:48:25;23.83;;;6.20;;
52102;SDS011;38101;53.126;6.878;2023-11-19T07:50:51;27.85;;;6.05;;
52102;SDS011;38101;53.126;6.878;2023-11-19T07:53:18;30.75;;;7.97;;
52102;SDS011;38101;53.126;6.878;2023-11-19T07:55:44;28.48;;;6.30;;
52102;SDS011;38101;53.126;6.878;2023-11-19T07:58:10;29.85;;;7.13;;
52102;SDS011;38101;53.126;6.878;2023-11-19T08:00:37;27.73;;;7.53;;
52102;SDS011;38101;53.126;6.878;2023-11-19T08:03:03;28.63;;;6.43;;
52102;SDS011;38101;53.126;6.878;2023-11-19T08:05:30;24.50;;;6.65;;
52102;SDS011;38101;53.126;6.878;2023-11-19T08:07:56;21.27;;;6.10;;
52102;SDS011;38101;53.126;6.878;2023-11-19T08:10:23;27.40;;;6.25;;
52102;SDS011;38101;53.126;6.878;2023-11-19T08:12:49;18.58;;;5.10;;
52102;SDS011;38101;53.126;6.878;2023-11-19T08:15:14;20.88;;;6.07;;
52102;SDS011;38101;53.126;6.878;2023-11-19T08:17:41;26.90;;;7.80;;
52102;SDS011;38101;53.126;6.878;2023-11-19T08:20:08;28.60;;;6.50;;
52102;SDS011;38101;53.126;6.878;2023-11-19T08:22:38;27.67;;;6.00;;
52102;SDS011;38101;53.126;6.878;2023-11-19T08:25:04;28.08;;;6.57;;
52102;SDS011;38101;53.126;6.878;2023-11-19T08:27:31;19.73;;;5.32;;
52102;SDS011;38101;53.126;6.878;2023-11-19T08:29:56;19.83;;;5.53;;
52102;SDS011;38101;53.126;6.878;2023-11-19T08:32:23;27.13;;;6.22;;
52102;SDS011;38101;53.126;6.878;2023-11-19T08:34:49;20.48;;;6.18;;
52102;SDS011;38101;53.126;6.878;2023-11-19T08:37:15;21.63;;;6.03;;
52102;SDS011;38101;53.126;6.878;2023-11-19T08:39:43;25.85;;;6.20;;
52102;SDS011;38101;53.126;6.878;2023-11-19T08:42:08;27.63;;;6.47;;
52102;SDS011;38101;53.126;6.878;2023-11-19T08:44:34;20.83;;;5.38;;
52102;SDS011;38101;53.126;6.878;2023-11-19T08:47:00;26.50;;;6.15;;
52102;SDS011;38101;53.126;6.878;2023-11-19T08:49:25;28.95;;;6.43;;
52102;SDS011;38101;53.126;6.878;2023-11-19T08:51:51;27.27;;;7.05;;
52102;SDS011;38101;53.126;6.878;2023-11-19T08:54:17;25.70;;;5.75;;
52102;SDS011;38101;53.126;6.878;2023-11-19T08:56:42;26.00;;;6.30;;
52102;SDS011;38101;53.126;6.878;2023-11-19T08:59:08;24.05;;;6.13;;
52102;SDS011;38101;53.126;6.878;2023-11-19T09:01:34;30.23;;;6.53;;
52102;SDS011;38101;53.126;6.878;2023-11-19T09:03:59;22.00;;;6.30;;
52102;SDS011;38101;53.126;6.878;2023-11-19T09:06:25;25.48;;;6.18;;
52102;SDS011;38101;53.126;6.878;2023-11-19T09:08:51;21.90;;;5.90;;
52102;SDS011;38101;53.126;6.878;2023-11-19T09:11:17;27.38;;;7.15;;
52102;SDS011;38101;53.126;6.878;2023-11-19T09:13:42;27.40;;;6.20;;
52102;SDS011;38101;53.126;6.878;2023-11-19T09:16:11;23.27;;;5.90;;
52102;SDS011;38101;53.126;6.878;2023-11-19T09:21:10;24.27;;;5.82;;
52102;SDS011;38101;53.126;6.878;2023-11-19T09:23:36;27.38;;;6.15;;
52102;SDS011;38101;53.126;6.878;2023-11-19T09:26:04;23.27;;;6.00;;
52102;SDS011;38101;53.126;6.878;2023-11-19T09:28:30;33.97;;;7.00;;
52102;SDS011;38101;53.126;6.878;2023-11-19T09:30:56;17.50;;;5.60;;
52102;SDS011;38101;53.126;6.878;2023-11-19T09:33:22;23.65;;;6.18;;
52102;SDS011;38101;53.126;6.878;2023-11-19T09:35:48;27.70;;;5.65;;
52102;SDS011;38101;53.126;6.878;2023-11-19T09:38:17;22.27;;;7.13;;
52102;SDS011;38101;53.126;6.878;2023-11-19T09:40:43;25.77;;;6.85;;
52102;SDS011;38101;53.126;6.878;2023-11-19T09:43:08;23.60;;;6.15;;
52102;SDS011;38101;53.126;6.878;2023-11-19T09:45:43;23.50;;;6.20;;
52102;SDS011;38101;53.126;6.878;2023-11-19T09:48:17;27.95;;;6.15;;
52102;SDS011;38101;53.126;6.878;2023-11-19T09:50:46;33.05;;;7.05;;
52102;SDS011;38101;53.126;6.878;2023-11-19T09:53:13;28.42;;;6.40;;
52102;SDS011;38101;53.126;6.878;2023-11-19T09:55:40;19.48;;;6.10;;
52102;SDS011;38101;53.126;6.878;2023-11-19T09:58:06;27.00;;;6.30;;
52102;SDS011;38101;53.126;6.878;2023-11-19T10:00:33;25.50;;;7.18;;
52102;SDS011;38101;53.126;6.878;2023-11-19T10:02:59;23.58;;;6.38;;
52102;SDS011;38101;53.126;6.878;2023-11-19T10:05:26;27.65;;;7.20;;
52102;SDS011;38101;53.126;6.878;2023-11-19T10:07:52;19.23;;;6.25;;
52102;SDS011;38101;53.126;6.878;2023-11-19T10:10:18;28.98;;;6.80;;
52102;SDS011;38101;53.126;6.878;2023-11-19T10:12:47;21.40;;;6.30;;
52102;SDS011;38101;53.126;6.878;2023-11-19T10:15:22;24.95;;;5.68;;
52102;SDS011;38101;53.126;6.878;2023-11-19T10:17:58;29.67;;;6.07;;
52102;SDS011;38101;53.126;6.878;2023-11-19T10:20:24;20.83;;;6.50;;
52102;SDS011;38101;53.126;6.878;2023-11-19T10:22:53;25.08;;;6.47;;
52102;SDS011;38101;53.126;6.878;2023-11-19T10:25:26;23.17;;;6.75;;
52102;SDS011;38101;53.126;6.878;2023-11-19T10:27:53;22.85;;;6.45;;
52102;SDS011;38101;53.126;6.878;2023-11-19T10:35:53;27.30;;;5.82;;
52102;SDS011;38101;53.126;6.878;2023-11-19T10:38:21;23.83;;;6.32;;
52102;SDS011;38101;53.126;6.878;2023-11-19T10:40:51;24.95;;;6.40;;
52102;SDS011;38101;53.126;6.878;2023-11-19T10:43:17;29.08;;;6.53;;
52102;SDS011;38101;53.126;6.878;2023-11-19T10:45:50;23.52;;;5.88;;
52102;SDS011;38101;53.126;6.878;2023-11-19T10:48:16;28.08;;;7.25;;
52102;SDS011;38101;53.126;6.878;2023-11-19T10:50:43;30.02;;;7.00;;
52102;SDS011;38101;53.126;6.878;2023-11-19T10:53:10;21.45;;;6.03;;
52102;SDS011;38101;53.126;6.878;2023-11-19T10:55:41;24.02;;;6.30;;
52102;SDS011;38101;53.126;6.878;2023-11-19T10:58:10;25.90;;;6.10;;
52102;SDS011;38101;53.126;6.878;2023-11-19T11:00:44;17.30;;;5.20;;
52102;SDS011;38101;53.126;6.878;2023-11-19T11:03:16;22.80;;;5.95;;
52102;SDS011;38101;53.126;6.878;2023-11-19T11:05:43;24.05;;;6.13;;
52102;SDS011;38101;53.126;6.878;2023-11-19T11:08:12;32.03;;;6.68;;
52102;SDS011;38101;53.126;6.878;2023-11-19T11:10:45;23.05;;;6.13;;
52102;SDS011;38101;53.126;6.878;2023-11-19T11:13:20;27.23;;;5.82;;
52102;SDS011;38101;53.126;6.878;2023-11-19T11:15:49;25.20;;;6.47;;
52102;SDS011;38101;53.126;6.878;2023-11-19T11:18:15;24.30;;;5.55;;
52102;SDS011;38101;53.126;6.878;2023-11-19T11:20:45;18.45;;;5.60;;
52102;SDS011;38101;53.126;6.878;2023-11-19T11:29:09;21.33;;;6.43;;
52102;SDS011;38101;53.126;6.878;2023-11-19T11:34:43;24.00;;;5.13;;
52102;SDS011;38101;53.126;6.878;2023-11-19T11:37:32;19.52;;;5.35;;
52102;SDS011;38101;53.126;6.878;2023-11-19T11:40:02;20.20;;;5.67;;
52102;SDS011;38101;53.126;6.878;2023-11-19T11:42:35;20.83;;;4.97;;
52102;SDS011;38101;53.126;6.878;2023-11-19T11:50:29;22.48;;;5.68;;
52102;SDS011;38101;53.126;6.878;2023-11-19T11:55:52;26.60;;;6.18;;
52102;SDS011;38101;53.126;6.878;2023-11-19T11:58:27;26.27;;;5.07;;
52102;SDS011;38101;53.126;6.878;2023-11-19T12:00:57;23.38;;;6.30;;
52102;SDS011;38101;53.126;6.878;2023-11-19T12:03:23;21.85;;;5.97;;
52102;SDS011;38101;53.126;6.878;2023-11-19T12:05:51;17.23;;;5.20;;
52102;SDS011;38101;53.126;6.878;2023-11-19T12:08:25;20.85;;;6.03;;
52102;SDS011;38101;53.126;6.878;2023-11-19T12:10:53;29.83;;;5.95;;
52102;SDS011;38101;53.126;6.878;2023-11-19T12:13:23;21.73;;;6.55;;
52102;SDS011;38101;53.126;6.878;2023-11-19T12:18:24;24.42;;;5.47;;
52102;SDS011;38101;53.126;6.878;2023-11-19T12:20:52;14.43;;;4.30;;
52102;SDS011;38101;53.126;6.878;2023-11-19T12:23:18;26.33;;;5.60;;
52102;SDS011;38101;53.126;6.878;2023-11-19T12:25:44;23.23;;;5.65;;
52102;SDS011;38101;53.126;6.878;2023-11-19T12:28:12;25.92;;;5.50;;
52102;SDS011;38101;53.126;6.878;2023-11-19T12:30:39;21.92;;;5.47;;
52102;SDS011;38101;53.126;6.878;2023-11-19T12:33:08;25.58;;;5.93;;
52102;SDS011;38101;53.126;6.878;2023-11-19T12:35:44;23.00;;;6.38;;
52102;SDS011;38101;53.126;6.878;2023-11-19T12:38:19;23.10;;;5.55;;
52102;SDS011;38101;53.126;6.878;2023-11-19T12:41:07;22.60;;;5.97;;
52102;SDS011;38101;53.126;6.878;2023-11-19T12:43:38;21.50;;;5.65;;
52102;SDS011;38101;53.126;6.878;2023-11-19T12:46:17;23.27;;;5.78;;
52102;SDS011;38101;53.126;6.878;2023-11-19T12:48:45;17.85;;;5.38;;
52102;SDS011;38101;53.126;6.878;2023-11-19T12:51:12;19.98;;;6.13;;
52102;SDS011;38101;53.126;6.878;2023-11-19T12:53:47;24.23;;;5.15;;
52102;SDS011;38101;53.126;6.878;2023-11-19T12:56:19;24.83;;;6.05;;
52102;SDS011;38101;53.126;6.878;2023-11-19T12:58:46;19.85;;;5.13;;
52102;SDS011;38101;53.126;6.878;2023-11-19T13:01:15;17.92;;;5.22;;
52102;SDS011;38101;53.126;6.878;2023-11-19T13:03:45;23.75;;;6.18;;
52102;SDS011;38101;53.126;6.878;2023-11-19T13:06:12;21.90;;;5.78;;
52102;SDS011;38101;53.126;6.878;2023-11-19T13:08:42;21.83;;;5.32;;
52102;SDS011;38101;53.126;6.878;2023-11-19T13:11:09;23.13;;;5.82;;
52102;SDS011;38101;53.126;6.878;2023-11-19T13:16:22;24.20;;;6.20;;
52102;SDS011;38101;53.126;6.878;2023-11-19T13:18:48;24.92;;;6.72;;
52102;SDS011;38101;53.126;6.878;2023-11-19T13:21:14;22.98;;;5.57;;
52102;SDS011;38101;53.126;6.878;2023-11-19T13:23:40;22.70;;;5.75;;
52102;SDS011;38101;53.126;6.878;2023-11-19T13:26:06;19.67;;;5.90;;
52102;SDS011;38101;53.126;6.878;2023-11-19T13:28:32;19.92;;;5.13;;
52102;SDS011;38101;53.126;6.878;2023-11-19T13:30:58;22.13;;;6.20;;
52102;SDS011;38101;53.126;6.878;2023-11-19T13:33:23;22.52;;;5.07;;
52102;SDS011;38101;53.126;6.878;2023-11-19T13:35:49;23.13;;;5.25;;
52102;SDS011;38101;53.126;6.878;2023-11-19T13:38:15;20.67;;;5.50;;
52102;SDS011;38101;53.126;6.878;2023-11-19T13:40:40;19.60;;;5.80;;
52102;SDS011;38101;53.126;6.878;2023-11-19T13:43:06;17.88;;;5.35;;
52102;SDS011;38101;53.126;6.878;2023-11-19T13:45:32;20.75;;;5.03;;
52102;SDS011;38101;53.126;6.878;2023-11-19T13:47:58;20.10;;;4.78;;
52102;SDS011;38101;53.126;6.878;2023-11-19T13:50:24;15.68;;;4.63;;
52102;SDS011;38101;53.126;6.878;2023-11-19T13:52:49;21.13;;;5.05;;
52102;SDS011;38101;53.126;6.878;2023-11-19T13:55:15;21.13;;;4.97;;
52102;SDS011;38101;53.126;6.878;2023-11-19T13:57:41;18.70;;;5.15;;
52102;SDS011;38101;53.126;6.878;2023-11-19T14:00:09;17.85;;;5.35;;
52102;SDS011;38101;53.126;6.878;2023-11-19T14:02:42;17.00;;;5.13;;
52102;SDS011;38101;53.126;6.878;2023-11-19T14:05:11;15.57;;;4.30;;
52102;SDS011;38101;53.126;6.878;2023-11-19T14:07:37;19.98;;;6.28;;
52102;SDS011;38101;53.126;6.878;2023-11-19T14:10:03;25.23;;;5.30;;
52102;SDS011;38101;53.126;6.878;2023-11-19T14:12:34;16.95;;;4.35;;
52102;SDS011;38101;53.126;6.878;2023-11-19T14:15:01;21.98;;;5.35;;
52102;SDS011;38101;53.126;6.878;2023-11-19T14:17:27;19.38;;;4.82;;
52102;SDS011;38101;53.126;6.878;2023-11-19T14:19:53;22.63;;;5.47;;
52102;SDS011;38101;53.126;6.878;2023-11-19T14:22:19;16.90;;;4.72;;
52102;SDS011;38101;53.126;6.878;2023-11-19T14:24:44;16.48;;;5.03;;
52102;SDS011;38101;53.126;6.878;2023-11-19T14:27:10;19.88;;;5.35;;
52102;SDS011;38101;53.126;6.878;2023-11-19T14:29:36;19.35;;;5.53;;
52102;SDS011;38101;53.126;6.878;2023-11-19T14:32:02;18.13;;;5.07;;
52102;SDS011;38101;53.126;6.878;2023-11-19T14:34:32;19.55;;;5.55;;
52102;SDS011;38101;53.126;6.878;2023-11-19T14:36:58;19.92;;;5.28;;
52102;SDS011;38101;53.126;6.878;2023-11-19T14:39:25;20.75;;;5.28;;
52102;SDS011;38101;53.126;6.878;2023-11-19T14:41:51;17.13;;;4.93;;
52102;SDS011;38101;53.126;6.878;2023-11-19T14:44:18;25.67;;;5.25;;
52102;SDS011;38101;53.126;6.878;2023-11-19T14:46:45;14.35;;;4.45;;
52102;SDS011;38101;53.126;6.878;2023-11-19T14:49:12;20.33;;;5.15;;
52102;SDS011;38101;53.126;6.878;2023-11-19T14:51:39;20.27;;;4.60;;
52102;SDS011;38101;53.126;6.878;2023-11-19T14:54:07;20.02;;;5.22;;
52102;SDS011;38101;53.126;6.878;2023-11-19T14:56:33;22.35;;;5.65;;
52102;SDS011;38101;53.126;6.878;2023-11-19T14:58:59;18.38;;;5.30;;
52102;SDS011;38101;53.126;6.878;2023-11-19T15:01:25;17.13;;;4.90;;
52102;SDS011;38101;53.126;6.878;2023-11-19T15:03:50;15.43;;;5.10;;